Terminal Aerodrome Forecast
Issued by NWS

Home | Current Version | Previous Version | Text Only | Print | Product List | Glossary Off
Versions: 1 2 3 4 5 6 7 8 9 10 11 12 13 14 15 16 17 18 19 20 21 22 23 24 25 26

000
FTUS43 KDDC 221744
TAFGCK
TAF
KGCK 221744Z 2218/2318 18020G30KT P6SM SCT020 BKN040
     FM222000 17025G35KT P6SM SCT030
     FM222300 17025G35KT P6SM VCTS SCT040CB BKN250
     FM230200 16020G27KT P6SM BKN020
     FM230600 16015G25KT P6SM OVC012=

USA.gov is the U.S. government's official web portal to all federal, state and local government web resources and services.